sensor_id;sensor_type;location;lat;lon;timestamp;P1;durP1;ratioP1;P2;durP2;ratioP2
9392;SDS011;4736;52.508;13.422;2023-05-10T00:02:29;8.13;;;7.43;;
9392;SDS011;4736;52.508;13.422;2023-05-10T00:05:33;7.70;;;7.20;;
9392;SDS011;4736;52.508;13.422;2023-05-10T00:08:36;7.77;;;7.20;;
9392;SDS011;4736;52.508;13.422;2023-05-10T00:11:39;6.43;;;6.13;;
9392;SDS011;4736;52.508;13.422;2023-05-10T00:14:42;7.10;;;6.70;;
9392;SDS011;4736;52.508;13.422;2023-05-10T00:17:46;7.77;;;7.20;;
9392;SDS011;4736;52.508;13.422;2023-05-10T00:20:50;7.13;;;6.63;;
9392;SDS011;4736;52.508;13.422;2023-05-10T00:23:53;7.53;;;6.93;;
9392;SDS011;4736;52.508;13.422;2023-05-10T00:26:56;7.63;;;7.00;;
9392;SDS011;4736;52.508;13.422;2023-05-10T00:29:59;7.77;;;7.23;;
9392;SDS011;4736;52.508;13.422;2023-05-10T00:33:03;7.80;;;7.20;;
9392;SDS011;4736;52.508;13.422;2023-05-10T00:36:07;8.00;;;7.40;;
9392;SDS011;4736;52.508;13.422;2023-05-10T00:39:13;9.80;;;7.87;;
9392;SDS011;4736;52.508;13.422;2023-05-10T00:42:16;7.93;;;7.33;;
9392;SDS011;4736;52.508;13.422;2023-05-10T00:45:19;8.57;;;7.43;;
9392;SDS011;4736;52.508;13.422;2023-05-10T00:48:24;8.30;;;7.83;;
9392;SDS011;4736;52.508;13.422;2023-05-10T00:51:27;8.80;;;8.10;;
9392;SDS011;4736;52.508;13.422;2023-05-10T00:54:30;8.07;;;7.43;;
9392;SDS011;4736;52.508;13.422;2023-05-10T00:57:33;7.83;;;7.33;;
9392;SDS011;4736;52.508;13.422;2023-05-10T01:00:36;8.10;;;7.47;;
9392;SDS011;4736;52.508;13.422;2023-05-10T01:03:45;7.77;;;7.27;;
9392;SDS011;4736;52.508;13.422;2023-05-10T01:06:49;8.37;;;7.60;;
9392;SDS011;4736;52.508;13.422;2023-05-10T01:09:52;8.13;;;7.50;;
9392;SDS011;4736;52.508;13.422;2023-05-10T01:12:55;7.97;;;7.47;;
9392;SDS011;4736;52.508;13.422;2023-05-10T01:16:01;8.17;;;7.63;;
9392;SDS011;4736;52.508;13.422;2023-05-10T01:19:06;8.57;;;7.77;;
9392;SDS011;4736;52.508;13.422;2023-05-10T01:22:25;8.23;;;7.53;;
9392;SDS011;4736;52.508;13.422;2023-05-10T01:25:50;9.23;;;8.37;;
9392;SDS011;4736;52.508;13.422;2023-05-10T01:29:11;8.20;;;7.70;;
9392;SDS011;4736;52.508;13.422;2023-05-10T01:32:29;7.47;;;7.07;;
9392;SDS011;4736;52.508;13.422;2023-05-10T01:35:38;8.23;;;7.73;;
9392;SDS011;4736;52.508;13.422;2023-05-10T01:38:47;7.77;;;7.17;;
9392;SDS011;4736;52.508;13.422;2023-05-10T01:41:54;7.57;;;7.17;;
9392;SDS011;4736;52.508;13.422;2023-05-10T01:45:06;8.87;;;7.47;;
9392;SDS011;4736;52.508;13.422;2023-05-10T01:48:17;8.27;;;7.73;;
9392;SDS011;4736;52.508;13.422;2023-05-10T01:51:23;8.10;;;7.63;;
9392;SDS011;4736;52.508;13.422;2023-05-10T01:54:28;8.20;;;7.60;;
9392;SDS011;4736;52.508;13.422;2023-05-10T01:57:33;7.80;;;7.30;;
9392;SDS011;4736;52.508;13.422;2023-05-10T02:00:40;8.60;;;7.90;;
9392;SDS011;4736;52.508;13.422;2023-05-10T02:03:47;7.27;;;6.87;;
9392;SDS011;4736;52.508;13.422;2023-05-10T02:06:53;7.90;;;7.33;;
9392;SDS011;4736;52.508;13.422;2023-05-10T02:09:57;7.97;;;7.53;;
9392;SDS011;4736;52.508;13.422;2023-05-10T02:13:02;11.23;;;7.63;;
9392;SDS011;4736;52.508;13.422;2023-05-10T02:16:05;7.77;;;7.23;;
9392;SDS011;4736;52.508;13.422;2023-05-10T02:19:10;7.60;;;7.03;;
9392;SDS011;4736;52.508;13.422;2023-05-10T02:22:16;7.87;;;7.27;;
9392;SDS011;4736;52.508;13.422;2023-05-10T02:25:21;7.73;;;7.10;;
9392;SDS011;4736;52.508;13.422;2023-05-10T02:28:25;7.80;;;7.40;;
9392;SDS011;4736;52.508;13.422;2023-05-10T02:31:29;7.70;;;7.27;;
9392;SDS011;4736;52.508;13.422;2023-05-10T02:34:36;8.33;;;7.77;;
9392;SDS011;4736;52.508;13.422;2023-05-10T02:37:40;8.00;;;7.50;;
9392;SDS011;4736;52.508;13.422;2023-05-10T02:40:44;8.17;;;7.57;;
9392;SDS011;4736;52.508;13.422;2023-05-10T02:43:49;7.87;;;7.27;;
9392;SDS011;4736;52.508;13.422;2023-05-10T02:46:54;7.70;;;7.10;;
9392;SDS011;4736;52.508;13.422;2023-05-10T02:49:59;7.30;;;6.80;;
9392;SDS011;4736;52.508;13.422;2023-05-10T02:53:03;8.03;;;7.50;;
9392;SDS011;4736;52.508;13.422;2023-05-10T02:56:13;7.70;;;7.20;;
9392;SDS011;4736;52.508;13.422;2023-05-10T02:59:22;8.00;;;7.30;;
9392;SDS011;4736;52.508;13.422;2023-05-10T03:02:28;8.10;;;7.50;;
9392;SDS011;4736;52.508;13.422;2023-05-10T03:05:33;7.47;;;6.93;;
9392;SDS011;4736;52.508;13.422;2023-05-10T03:08:36;7.60;;;7.10;;
9392;SDS011;4736;52.508;13.422;2023-05-10T03:11:43;7.67;;;7.10;;
9392;SDS011;4736;52.508;13.422;2023-05-10T03:14:53;7.60;;;7.00;;
9392;SDS011;4736;52.508;13.422;2023-05-10T03:18:04;7.40;;;7.00;;
9392;SDS011;4736;52.508;13.422;2023-05-10T03:21:13;7.30;;;6.73;;
9392;SDS011;4736;52.508;13.422;2023-05-10T03:24:20;7.80;;;7.20;;
9392;SDS011;4736;52.508;13.422;2023-05-10T03:27:26;8.10;;;7.37;;
9392;SDS011;4736;52.508;13.422;2023-05-10T03:30:30;6.80;;;6.30;;
9392;SDS011;4736;52.508;13.422;2023-05-10T03:33:33;7.30;;;6.80;;
9392;SDS011;4736;52.508;13.422;2023-05-10T03:36:38;7.33;;;6.63;;
9392;SDS011;4736;52.508;13.422;2023-05-10T03:39:41;7.67;;;7.17;;
9392;SDS011;4736;52.508;13.422;2023-05-10T03:42:44;7.50;;;7.00;;
9392;SDS011;4736;52.508;13.422;2023-05-10T03:45:47;7.70;;;7.13;;
9392;SDS011;4736;52.508;13.422;2023-05-10T03:48:50;7.20;;;6.80;;
9392;SDS011;4736;52.508;13.422;2023-05-10T03:51:55;7.83;;;7.33;;
9392;SDS011;4736;52.508;13.422;2023-05-10T03:54:58;7.73;;;7.10;;
9392;SDS011;4736;52.508;13.422;2023-05-10T03:58:01;7.93;;;7.20;;
9392;SDS011;4736;52.508;13.422;2023-05-10T04:01:04;7.57;;;6.93;;
9392;SDS011;4736;52.508;13.422;2023-05-10T04:04:07;7.10;;;6.50;;
9392;SDS011;4736;52.508;13.422;2023-05-10T04:07:12;7.00;;;6.60;;
9392;SDS011;4736;52.508;13.422;2023-05-10T04:10:15;7.37;;;6.87;;
9392;SDS011;4736;52.508;13.422;2023-05-10T04:13:19;7.90;;;7.40;;
9392;SDS011;4736;52.508;13.422;2023-05-10T04:16:22;7.77;;;7.23;;
9392;SDS011;4736;52.508;13.422;2023-05-10T04:19:28;7.13;;;6.73;;
9392;SDS011;4736;52.508;13.422;2023-05-10T04:22:33;7.50;;;6.57;;
9392;SDS011;4736;52.508;13.422;2023-05-10T04:25:36;7.20;;;6.70;;
9392;SDS011;4736;52.508;13.422;2023-05-10T04:28:39;6.87;;;6.43;;
9392;SDS011;4736;52.508;13.422;2023-05-10T04:31:42;7.70;;;6.70;;
9392;SDS011;4736;52.508;13.422;2023-05-10T04:34:45;7.10;;;6.63;;
9392;SDS011;4736;52.508;13.422;2023-05-10T04:37:50;8.23;;;6.83;;
9392;SDS011;4736;52.508;13.422;2023-05-10T04:40:53;7.33;;;6.73;;
9392;SDS011;4736;52.508;13.422;2023-05-10T04:43:57;7.03;;;6.50;;
9392;SDS011;4736;52.508;13.422;2023-05-10T04:47:02;6.97;;;6.43;;
9392;SDS011;4736;52.508;13.422;2023-05-10T04:50:28;6.90;;;6.23;;
9392;SDS011;4736;52.508;13.422;2023-05-10T04:53:33;7.63;;;7.03;;
9392;SDS011;4736;52.508;13.422;2023-05-10T04:56:36;8.40;;;6.37;;
9392;SDS011;4736;52.508;13.422;2023-05-10T04:59:39;6.80;;;6.30;;
9392;SDS011;4736;52.508;13.422;2023-05-10T05:02:42;6.60;;;6.10;;
9392;SDS011;4736;52.508;13.422;2023-05-10T05:05:46;7.13;;;6.47;;
9392;SDS011;4736;52.508;13.422;2023-05-10T05:08:51;7.10;;;6.43;;
9392;SDS011;4736;52.508;13.422;2023-05-10T05:11:54;6.60;;;5.80;;
9392;SDS011;4736;52.508;13.422;2023-05-10T05:14:57;5.93;;;5.53;;
9392;SDS011;4736;52.508;13.422;2023-05-10T05:18:00;6.27;;;5.77;;
9392;SDS011;4736;52.508;13.422;2023-05-10T05:21:12;6.33;;;5.83;;
9392;SDS011;4736;52.508;13.422;2023-05-10T05:24:17;6.50;;;5.83;;
9392;SDS011;4736;52.508;13.422;2023-05-10T05:27:20;6.10;;;5.63;;
9392;SDS011;4736;52.508;13.422;2023-05-10T05:30:25;6.20;;;5.60;;
9392;SDS011;4736;52.508;13.422;2023-05-10T05:33:28;6.63;;;5.90;;
9392;SDS011;4736;52.508;13.422;2023-05-10T05:36:31;5.73;;;5.40;;
9392;SDS011;4736;52.508;13.422;2023-05-10T05:39:38;7.07;;;5.47;;
9392;SDS011;4736;52.508;13.422;2023-05-10T05:42:41;5.63;;;5.23;;
9392;SDS011;4736;52.508;13.422;2023-05-10T05:45:44;5.10;;;4.80;;
9392;SDS011;4736;52.508;13.422;2023-05-10T05:48:47;4.97;;;4.77;;
9392;SDS011;4736;52.508;13.422;2023-05-10T05:51:50;8.33;;;5.60;;
9392;SDS011;4736;52.508;13.422;2023-05-10T05:54:55;5.27;;;4.87;;
9392;SDS011;4736;52.508;13.422;2023-05-10T05:57:58;5.33;;;4.93;;
9392;SDS011;4736;52.508;13.422;2023-05-10T06:01:01;5.13;;;4.73;;
9392;SDS011;4736;52.508;13.422;2023-05-10T06:04:04;6.77;;;5.03;;
9392;SDS011;4736;52.508;13.422;2023-05-10T06:07:07;4.67;;;4.47;;
9392;SDS011;4736;52.508;13.422;2023-05-10T06:10:12;6.37;;;4.60;;
9392;SDS011;4736;52.508;13.422;2023-05-10T06:13:15;4.90;;;4.63;;
9392;SDS011;4736;52.508;13.422;2023-05-10T06:16:18;9.63;;;4.50;;
9392;SDS011;4736;52.508;13.422;2023-05-10T06:19:21;5.40;;;4.50;;
9392;SDS011;4736;52.508;13.422;2023-05-10T06:22:24;5.57;;;4.20;;
9392;SDS011;4736;52.508;13.422;2023-05-10T06:25:28;4.50;;;4.13;;
9392;SDS011;4736;52.508;13.422;2023-05-10T06:28:31;10.97;;;5.03;;
9392;SDS011;4736;52.508;13.422;2023-05-10T06:31:34;5.23;;;4.10;;
9392;SDS011;4736;52.508;13.422;2023-05-10T06:34:37;8.77;;;5.30;;
9392;SDS011;4736;52.508;13.422;2023-05-10T06:37:44;4.90;;;4.60;;
9392;SDS011;4736;52.508;13.422;2023-05-10T06:40:49;10.00;;;4.10;;
9392;SDS011;4736;52.508;13.422;2023-05-10T06:43:52;8.47;;;4.63;;
9392;SDS011;4736;52.508;13.422;2023-05-10T06:46:55;13.33;;;4.83;;
9392;SDS011;4736;52.508;13.422;2023-05-10T06:49:58;6.57;;;4.00;;
9392;SDS011;4736;52.508;13.422;2023-05-10T06:53:01;8.30;;;4.17;;
9392;SDS011;4736;52.508;13.422;2023-05-10T06:56:06;4.53;;;4.10;;
9392;SDS011;4736;52.508;13.422;2023-05-10T06:59:09;7.70;;;4.53;;
9392;SDS011;4736;52.508;13.422;2023-05-10T07:02:13;5.10;;;4.60;;
9392;SDS011;4736;52.508;13.422;2023-05-10T07:05:17;5.07;;;4.27;;
9392;SDS011;4736;52.508;13.422;2023-05-10T07:08:21;13.57;;;4.97;;
9392;SDS011;4736;52.508;13.422;2023-05-10T07:11:26;4.20;;;3.80;;
9392;SDS011;4736;52.508;13.422;2023-05-10T07:14:29;3.90;;;3.70;;
9392;SDS011;4736;52.508;13.422;2023-05-10T07:17:33;5.03;;;4.53;;
9392;SDS011;4736;52.508;13.422;2023-05-10T07:20:36;4.23;;;3.83;;
9392;SDS011;4736;52.508;13.422;2023-05-10T07:23:39;4.57;;;4.23;;
9392;SDS011;4736;52.508;13.422;2023-05-10T07:26:46;4.40;;;3.90;;
9392;SDS011;4736;52.508;13.422;2023-05-10T07:29:49;10.00;;;4.27;;
9392;SDS011;4736;52.508;13.422;2023-05-10T07:32:52;7.50;;;3.70;;
9392;SDS011;4736;52.508;13.422;2023-05-10T07:35:56;4.50;;;4.07;;
9392;SDS011;4736;52.508;13.422;2023-05-10T07:39:01;4.07;;;3.70;;
9392;SDS011;4736;52.508;13.422;2023-05-10T07:42:05;5.60;;;4.80;;
9392;SDS011;4736;52.508;13.422;2023-05-10T07:45:09;6.07;;;4.17;;
9392;SDS011;4736;52.508;13.422;2023-05-10T07:48:12;10.63;;;4.33;;
9392;SDS011;4736;52.508;13.422;2023-05-10T07:51:15;5.27;;;3.73;;
9392;SDS011;4736;52.508;13.422;2023-05-10T07:54:18;4.30;;;3.87;;
9392;SDS011;4736;52.508;13.422;2023-05-10T07:57:23;3.60;;;3.50;;
9392;SDS011;4736;52.508;13.422;2023-05-10T08:00:26;4.20;;;3.90;;
9392;SDS011;4736;52.508;13.422;2023-05-10T08:03:29;9.87;;;4.23;;
9392;SDS011;4736;52.508;13.422;2023-05-10T08:06:32;4.83;;;4.20;;
9392;SDS011;4736;52.508;13.422;2023-05-10T08:09:35;4.67;;;4.27;;
9392;SDS011;4736;52.508;13.422;2023-05-10T08:12:40;8.90;;;4.00;;
9392;SDS011;4736;52.508;13.422;2023-05-10T08:15:43;4.13;;;3.80;;
9392;SDS011;4736;52.508;13.422;2023-05-10T08:18:46;5.87;;;3.80;;
9392;SDS011;4736;52.508;13.422;2023-05-10T08:21:50;8.40;;;4.43;;
9392;SDS011;4736;52.508;13.422;2023-05-10T08:24:56;4.57;;;4.23;;
9392;SDS011;4736;52.508;13.422;2023-05-10T08:28:02;3.83;;;3.67;;
9392;SDS011;4736;52.508;13.422;2023-05-10T08:31:05;6.80;;;3.93;;
9392;SDS011;4736;52.508;13.422;2023-05-10T08:34:08;5.20;;;3.70;;
9392;SDS011;4736;52.508;13.422;2023-05-10T08:37:11;4.67;;;4.37;;
9392;SDS011;4736;52.508;13.422;2023-05-10T08:40:15;6.87;;;4.00;;
9392;SDS011;4736;52.508;13.422;2023-05-10T08:43:19;7.53;;;4.40;;
9392;SDS011;4736;52.508;13.422;2023-05-10T08:46:22;3.97;;;3.63;;
9392;SDS011;4736;52.508;13.422;2023-05-10T08:49:25;8.17;;;4.20;;
9392;SDS011;4736;52.508;13.422;2023-05-10T08:52:32;5.27;;;3.83;;
9392;SDS011;4736;52.508;13.422;2023-05-10T08:55:40;5.70;;;4.00;;
9392;SDS011;4736;52.508;13.422;2023-05-10T08:58:46;4.00;;;3.70;;
9392;SDS011;4736;52.508;13.422;2023-05-10T09:01:50;8.40;;;3.80;;
9392;SDS011;4736;52.508;13.422;2023-05-10T09:04:54;3.67;;;3.47;;
9392;SDS011;4736;52.508;13.422;2023-05-10T09:07:57;10.07;;;4.20;;
9392;SDS011;4736;52.508;13.422;2023-05-10T09:11:01;7.43;;;3.90;;
9392;SDS011;4736;52.508;13.422;2023-05-10T09:14:07;9.70;;;4.63;;
9392;SDS011;4736;52.508;13.422;2023-05-10T09:17:14;3.17;;;3.10;;
9392;SDS011;4736;52.508;13.422;2023-05-10T09:20:17;5.30;;;3.87;;
9392;SDS011;4736;52.508;13.422;2023-05-10T09:23:21;7.07;;;3.93;;
9392;SDS011;4736;52.508;13.422;2023-05-10T09:26:29;14.80;;;4.63;;
9392;SDS011;4736;52.508;13.422;2023-05-10T09:29:40;4.00;;;3.80;;
9392;SDS011;4736;52.508;13.422;2023-05-10T09:32:44;5.37;;;3.97;;
9392;SDS011;4736;52.508;13.422;2023-05-10T09:35:50;7.60;;;4.30;;
9392;SDS011;4736;52.508;13.422;2023-05-10T09:38:54;7.60;;;3.80;;
9392;SDS011;4736;52.508;13.422;2023-05-10T09:41:57;4.77;;;4.37;;
9392;SDS011;4736;52.508;13.422;2023-05-10T09:45:04;4.63;;;3.70;;
9392;SDS011;4736;52.508;13.422;2023-05-10T09:48:09;4.53;;;3.93;;
9392;SDS011;4736;52.508;13.422;2023-05-10T09:51:18;4.13;;;3.80;;
9392;SDS011;4736;52.508;13.422;2023-05-10T09:54:22;3.83;;;3.53;;
9392;SDS011;4736;52.508;13.422;2023-05-10T09:57:25;4.97;;;3.67;;
9392;SDS011;4736;52.508;13.422;2023-05-10T10:00:34;3.80;;;3.60;;
9392;SDS011;4736;52.508;13.422;2023-05-10T10:03:41;5.13;;;3.70;;
9392;SDS011;4736;52.508;13.422;2023-05-10T10:06:45;3.63;;;3.53;;
9392;SDS011;4736;52.508;13.422;2023-05-10T10:09:48;5.30;;;3.93;;
9392;SDS011;4736;52.508;13.422;2023-05-10T10:12:51;3.53;;;3.30;;
9392;SDS011;4736;52.508;13.422;2023-05-10T10:15:55;6.47;;;3.87;;
9392;SDS011;4736;52.508;13.422;2023-05-10T10:18:59;4.17;;;3.90;;
9392;SDS011;4736;52.508;13.422;2023-05-10T10:22:03;6.73;;;3.77;;
9392;SDS011;4736;52.508;13.422;2023-05-10T10:25:06;4.00;;;3.70;;
9392;SDS011;4736;52.508;13.422;2023-05-10T10:28:13;3.50;;;3.20;;
9392;SDS011;4736;52.508;13.422;2023-05-10T10:31:31;4.20;;;4.07;;
9392;SDS011;4736;52.508;13.422;2023-05-10T10:34:39;4.43;;;4.13;;
9392;SDS011;4736;52.508;13.422;2023-05-10T10:37:43;5.07;;;3.80;;
9392;SDS011;4736;52.508;13.422;2023-05-10T10:40:47;4.00;;;3.80;;
9392;SDS011;4736;52.508;13.422;2023-05-10T10:47:30;3.83;;;3.57;;
9392;SDS011;4736;52.508;13.422;2023-05-10T10:50:42;3.97;;;3.60;;
9392;SDS011;4736;52.508;13.422;2023-05-10T10:53:47;4.30;;;3.90;;
9392;SDS011;4736;52.508;13.422;2023-05-10T11:00:19;4.13;;;3.83;;
9392;SDS011;4736;52.508;13.422;2023-05-10T11:03:28;4.60;;;4.10;;
9392;SDS011;4736;52.508;13.422;2023-05-10T11:06:31;3.93;;;3.70;;
9392;SDS011;4736;52.508;13.422;2023-05-10T11:09:39;4.40;;;4.00;;
9392;SDS011;4736;52.508;13.422;2023-05-10T11:12:50;5.33;;;4.07;;
9392;SDS011;4736;52.508;13.422;2023-05-10T11:15:54;6.37;;;5.73;;
9392;SDS011;4736;52.508;13.422;2023-05-10T11:19:02;3.80;;;3.50;;
9392;SDS011;4736;52.508;13.422;2023-05-10T11:22:13;4.03;;;3.80;;
9392;SDS011;4736;52.508;13.422;2023-05-10T11:25:16;8.57;;;4.17;;
9392;SDS011;4736;52.508;13.422;2023-05-10T11:28:20;4.20;;;3.37;;
9392;SDS011;4736;52.508;13.422;2023-05-10T11:31:23;5.53;;;4.03;;
9392;SDS011;4736;52.508;13.422;2023-05-10T11:34:30;3.90;;;3.80;;
9392;SDS011;4736;52.508;13.422;2023-05-10T11:37:34;3.93;;;3.73;;
9392;SDS011;4736;52.508;13.422;2023-05-10T11:40:41;3.80;;;3.50;;
9392;SDS011;4736;52.508;13.422;2023-05-10T11:43:45;3.83;;;3.53;;
9392;SDS011;4736;52.508;13.422;2023-05-10T11:46:50;4.17;;;3.73;;
9392;SDS011;4736;52.508;13.422;2023-05-10T11:49:55;4.03;;;3.70;;
9392;SDS011;4736;52.508;13.422;2023-05-10T11:52:59;4.53;;;4.00;;
9392;SDS011;4736;52.508;13.422;2023-05-10T11:56:02;3.77;;;3.50;;
9392;SDS011;4736;52.508;13.422;2023-05-10T11:59:06;4.77;;;3.70;;
9392;SDS011;4736;52.508;13.422;2023-05-10T12:02:09;5.20;;;3.50;;
9392;SDS011;4736;52.508;13.422;2023-05-10T12:05:15;6.10;;;3.97;;
9392;SDS011;4736;52.508;13.422;2023-05-10T12:08:20;3.43;;;3.33;;
9392;SDS011;4736;52.508;13.422;2023-05-10T12:11:24;11.20;;;3.43;;
9392;SDS011;4736;52.508;13.422;2023-05-10T12:14:28;3.70;;;3.20;;
9392;SDS011;4736;52.508;13.422;2023-05-10T12:17:34;9.83;;;4.20;;
9392;SDS011;4736;52.508;13.422;2023-05-10T12:20:44;3.90;;;3.63;;
9392;SDS011;4736;52.508;13.422;2023-05-10T12:23:48;3.60;;;3.37;;
9392;SDS011;4736;52.508;13.422;2023-05-10T12:26:53;3.97;;;3.60;;
9392;SDS011;4736;52.508;13.422;2023-05-10T12:29:58;4.33;;;3.93;;
9392;SDS011;4736;52.508;13.422;2023-05-10T12:33:02;12.43;;;3.80;;
9392;SDS011;4736;52.508;13.422;2023-05-10T12:36:11;3.70;;;3.60;;
9392;SDS011;4736;52.508;13.422;2023-05-10T12:39:15;3.50;;;3.20;;
9392;SDS011;4736;52.508;13.422;2023-05-10T12:42:18;7.60;;;4.03;;
9392;SDS011;4736;52.508;13.422;2023-05-10T12:45:22;4.80;;;3.70;;
9392;SDS011;4736;52.508;13.422;2023-05-10T12:48:25;4.10;;;3.90;;
9392;SDS011;4736;52.508;13.422;2023-05-10T12:51:31;5.80;;;3.87;;
9392;SDS011;4736;52.508;13.422;2023-05-10T12:54:34;3.53;;;3.30;;
9392;SDS011;4736;52.508;13.422;2023-05-10T12:57:37;3.80;;;3.40;;
9392;SDS011;4736;52.508;13.422;2023-05-10T13:00:40;5.10;;;4.20;;
9392;SDS011;4736;52.508;13.422;2023-05-10T13:03:44;3.50;;;3.10;;
9392;SDS011;4736;52.508;13.422;2023-05-10T13:06:49;6.13;;;3.87;;
9392;SDS011;4736;52.508;13.422;2023-05-10T13:09:52;4.67;;;3.43;;
9392;SDS011;4736;52.508;13.422;2023-05-10T13:12:55;4.10;;;3.80;;
9392;SDS011;4736;52.508;13.422;2023-05-10T13:15:58;17.57;;;4.57;;
9392;SDS011;4736;52.508;13.422;2023-05-10T13:19:01;4.70;;;3.50;;
9392;SDS011;4736;52.508;13.422;2023-05-10T13:22:07;8.53;;;4.03;;
9392;SDS011;4736;52.508;13.422;2023-05-10T13:25:10;5.93;;;5.33;;
9392;SDS011;4736;52.508;13.422;2023-05-10T13:28:14;3.70;;;3.60;;
9392;SDS011;4736;52.508;13.422;2023-05-10T13:31:17;3.93;;;3.60;;
9392;SDS011;4736;52.508;13.422;2023-05-10T13:34:20;3.23;;;3.03;;
9392;SDS011;4736;52.508;13.422;2023-05-10T13:37:24;3.20;;;3.10;;
9392;SDS011;4736;52.508;13.422;2023-05-10T13:40:28;4.13;;;3.60;;
9392;SDS011;4736;52.508;13.422;2023-05-10T13:43:32;4.00;;;3.70;;
9392;SDS011;4736;52.508;13.422;2023-05-10T13:46:35;3.87;;;3.60;;
9392;SDS011;4736;52.508;13.422;2023-05-10T13:49:39;3.93;;;3.70;;
9392;SDS011;4736;52.508;13.422;2023-05-10T13:52:44;3.73;;;3.40;;
9392;SDS011;4736;52.508;13.422;2023-05-10T13:55:47;3.60;;;3.43;;
9392;SDS011;4736;52.508;13.422;2023-05-10T13:58:50;4.83;;;3.50;;
9392;SDS011;4736;52.508;13.422;2023-05-10T14:01:53;3.30;;;3.10;;
9392;SDS011;4736;52.508;13.422;2023-05-10T14:04:56;5.03;;;3.63;;
9392;SDS011;4736;52.508;13.422;2023-05-10T14:08:00;4.20;;;3.47;;
9392;SDS011;4736;52.508;13.422;2023-05-10T14:11:04;3.60;;;3.40;;
9392;SDS011;4736;52.508;13.422;2023-05-10T14:14:07;7.70;;;3.90;;
9392;SDS011;4736;52.508;13.422;2023-05-10T14:17:10;3.23;;;3.13;;
9392;SDS011;4736;52.508;13.422;2023-05-10T14:20:14;4.40;;;3.97;;
9392;SDS011;4736;52.508;13.422;2023-05-10T14:23:18;4.00;;;3.60;;
9392;SDS011;4736;52.508;13.422;2023-05-10T14:26:25;5.43;;;3.90;;
9392;SDS011;4736;52.508;13.422;2023-05-10T14:29:28;3.53;;;3.33;;
9392;SDS011;4736;52.508;13.422;2023-05-10T14:32:32;4.70;;;4.30;;
9392;SDS011;4736;52.508;13.422;2023-05-10T14:35:35;4.30;;;3.30;;
9392;SDS011;4736;52.508;13.422;2023-05-10T14:38:40;3.50;;;3.30;;
9392;SDS011;4736;52.508;13.422;2023-05-10T14:41:43;3.60;;;3.30;;
9392;SDS011;4736;52.508;13.422;2023-05-10T14:44:46;3.60;;;3.40;;
9392;SDS011;4736;52.508;13.422;2023-05-10T14:47:49;3.70;;;3.60;;
9392;SDS011;4736;52.508;13.422;2023-05-10T14:50:53;10.87;;;4.27;;
9392;SDS011;4736;52.508;13.422;2023-05-10T14:53:57;4.10;;;3.67;;
9392;SDS011;4736;52.508;13.422;2023-05-10T14:57:00;4.37;;;3.60;;
9392;SDS011;4736;52.508;13.422;2023-05-10T15:00:04;4.10;;;3.70;;
9392;SDS011;4736;52.508;13.422;2023-05-10T15:03:08;3.53;;;3.33;;
9392;SDS011;4736;52.508;13.422;2023-05-10T15:06:13;3.53;;;3.23;;
9392;SDS011;4736;52.508;13.422;2023-05-10T15:09:18;4.87;;;4.20;;
9392;SDS011;4736;52.508;13.422;2023-05-10T15:12:21;3.83;;;3.50;;
9392;SDS011;4736;52.508;13.422;2023-05-10T15:15:24;6.53;;;3.90;;
9392;SDS011;4736;52.508;13.422;2023-05-10T15:18:28;4.40;;;4.13;;
9392;SDS011;4736;52.508;13.422;2023-05-10T15:21:31;6.27;;;3.53;;
9392;SDS011;4736;52.508;13.422;2023-05-10T15:24:41;4.20;;;3.80;;
9392;SDS011;4736;52.508;13.422;2023-05-10T15:27:44;4.00;;;3.70;;
9392;SDS011;4736;52.508;13.422;2023-05-10T15:30:49;3.80;;;3.70;;
9392;SDS011;4736;52.508;13.422;2023-05-10T15:33:54;4.40;;;3.60;;
9392;SDS011;4736;52.508;13.422;2023-05-10T15:37:00;3.70;;;3.50;;
9392;SDS011;4736;52.508;13.422;2023-05-10T15:40:05;4.63;;;4.23;;
9392;SDS011;4736;52.508;13.422;2023-05-10T15:43:09;4.17;;;3.87;;
9392;SDS011;4736;52.508;13.422;2023-05-10T15:46:11;4.00;;;3.80;;
9392;SDS011;4736;52.508;13.422;2023-05-10T15:49:14;4.77;;;4.40;;
9392;SDS011;4736;52.508;13.422;2023-05-10T15:52:18;4.07;;;3.70;;
9392;SDS011;4736;52.508;13.422;2023-05-10T15:55:25;6.90;;;4.77;;
9392;SDS011;4736;52.508;13.422;2023-05-10T15:58:28;4.53;;;3.10;;
9392;SDS011;4736;52.508;13.422;2023-05-10T16:01:31;4.33;;;4.00;;
9392;SDS011;4736;52.508;13.422;2023-05-10T16:04:35;4.87;;;3.77;;
9392;SDS011;4736;52.508;13.422;2023-05-10T16:07:39;6.73;;;3.73;;
9392;SDS011;4736;52.508;13.422;2023-05-10T16:10:43;4.00;;;3.70;;
9392;SDS011;4736;52.508;13.422;2023-05-10T16:13:46;3.93;;;3.73;;
9392;SDS011;4736;52.508;13.422;2023-05-10T16:16:49;4.53;;;4.23;;
9392;SDS011;4736;52.508;13.422;2023-05-10T16:19:53;4.33;;;3.90;;
9392;SDS011;4736;52.508;13.422;2023-05-10T16:22:58;4.00;;;3.80;;
9392;SDS011;4736;52.508;13.422;2023-05-10T16:26:06;4.37;;;3.97;;
9392;SDS011;4736;52.508;13.422;2023-05-10T16:29:09;4.13;;;3.83;;
9392;SDS011;4736;52.508;13.422;2023-05-10T16:32:12;4.10;;;3.80;;
9392;SDS011;4736;52.508;13.422;2023-05-10T16:35:15;4.20;;;4.00;;
9392;SDS011;4736;52.508;13.422;2023-05-10T16:38:18;4.63;;;4.30;;
9392;SDS011;4736;52.508;13.422;2023-05-10T16:41:23;4.63;;;4.40;;
9392;SDS011;4736;52.508;13.422;2023-05-10T16:44:26;4.47;;;4.37;;
9392;SDS011;4736;52.508;13.422;2023-05-10T16:47:29;7.23;;;4.40;;
9392;SDS011;4736;52.508;13.422;2023-05-10T16:50:32;4.97;;;4.70;;
9392;SDS011;4736;52.508;13.422;2023-05-10T16:53:35;5.30;;;4.90;;
9392;SDS011;4736;52.508;13.422;2023-05-10T16:56:40;7.30;;;4.90;;
9392;SDS011;4736;52.508;13.422;2023-05-10T16:59:43;8.17;;;5.57;;
9392;SDS011;4736;52.508;13.422;2023-05-10T17:02:46;6.30;;;5.90;;
9392;SDS011;4736;52.508;13.422;2023-05-10T17:05:49;6.17;;;5.73;;
9392;SDS011;4736;52.508;13.422;2023-05-10T17:08:52;6.27;;;5.87;;
9392;SDS011;4736;52.508;13.422;2023-05-10T17:11:57;6.60;;;6.10;;
9392;SDS011;4736;52.508;13.422;2023-05-10T17:15:00;6.50;;;6.20;;
9392;SDS011;4736;52.508;13.422;2023-05-10T17:18:03;7.07;;;6.40;;
9392;SDS011;4736;52.508;13.422;2023-05-10T17:21:07;7.23;;;6.37;;
9392;SDS011;4736;52.508;13.422;2023-05-10T17:24:12;6.23;;;5.93;;
9392;SDS011;4736;52.508;13.422;2023-05-10T17:27:16;6.63;;;6.13;;
9392;SDS011;4736;52.508;13.422;2023-05-10T17:30:20;7.67;;;6.67;;
9392;SDS011;4736;52.508;13.422;2023-05-10T17:33:26;6.80;;;6.30;;
9392;SDS011;4736;52.508;13.422;2023-05-10T17:36:29;7.27;;;6.67;;
9392;SDS011;4736;52.508;13.422;2023-05-10T17:39:32;7.03;;;6.33;;
9392;SDS011;4736;52.508;13.422;2023-05-10T17:42:39;6.40;;;6.00;;
9392;SDS011;4736;52.508;13.422;2023-05-10T17:45:42;8.30;;;7.17;;
9392;SDS011;4736;52.508;13.422;2023-05-10T17:48:46;8.00;;;7.20;;
9392;SDS011;4736;52.508;13.422;2023-05-10T17:51:49;7.00;;;6.50;;
9392;SDS011;4736;52.508;13.422;2023-05-10T17:54:52;8.00;;;6.97;;
9392;SDS011;4736;52.508;13.422;2023-05-10T17:57:57;7.13;;;6.40;;
9392;SDS011;4736;52.508;13.422;2023-05-10T18:01:01;6.40;;;6.00;;
9392;SDS011;4736;52.508;13.422;2023-05-10T18:04:04;10.07;;;9.10;;
9392;SDS011;4736;52.508;13.422;2023-05-10T18:07:08;7.87;;;7.03;;
9392;SDS011;4736;52.508;13.422;2023-05-10T18:10:11;7.60;;;6.47;;
9392;SDS011;4736;52.508;13.422;2023-05-10T18:13:15;7.00;;;6.50;;
9392;SDS011;4736;52.508;13.422;2023-05-10T18:16:18;9.73;;;6.80;;
9392;SDS011;4736;52.508;13.422;2023-05-10T18:19:21;6.70;;;6.30;;
9392;SDS011;4736;52.508;13.422;2023-05-10T18:22:25;6.10;;;5.80;;
9392;SDS011;4736;52.508;13.422;2023-05-10T18:25:29;6.10;;;5.90;;
9392;SDS011;4736;52.508;13.422;2023-05-10T18:28:33;8.23;;;7.43;;
9392;SDS011;4736;52.508;13.422;2023-05-10T18:31:37;7.43;;;6.97;;
9392;SDS011;4736;52.508;13.422;2023-05-10T18:34:40;6.50;;;6.10;;
9392;SDS011;4736;52.508;13.422;2023-05-10T18:37:43;6.90;;;6.37;;
9392;SDS011;4736;52.508;13.422;2023-05-10T18:40:46;7.73;;;6.93;;
9392;SDS011;4736;52.508;13.422;2023-05-10T18:43:53;7.30;;;6.73;;
9392;SDS011;4736;52.508;13.422;2023-05-10T18:46:56;6.83;;;6.43;;
9392;SDS011;4736;52.508;13.422;2023-05-10T18:49:59;7.23;;;6.67;;
9392;SDS011;4736;52.508;13.422;2023-05-10T18:53:05;5.70;;;5.50;;
9392;SDS011;4736;52.508;13.422;2023-05-10T18:56:08;7.50;;;7.00;;